createdAt,value
2022-09-20T00:01:33.241Z,101160.86
2022-09-20T00:04:05.404Z,101161.70
2022-09-20T00:06:33.932Z,101162.85
2022-09-20T00:09:01.537Z,101165.09
2022-09-20T00:11:33.170Z,101163.73
2022-09-20T00:14:03.897Z,101167.05
2022-09-20T00:16:35.896Z,101167.81
2022-09-20T00:19:05.626Z,101167.64
2022-09-20T00:21:36.297Z,101169.48
2022-09-20T00:24:04.183Z,101171.27
2022-09-20T00:26:31.341Z,101173.27
2022-09-20T00:28:59.428Z,101176.10
2022-09-20T00:31:26.796Z,101174.31
2022-09-20T00:34:17.387Z,101175.71
2022-09-20T00:36:45.214Z,101174.98
2022-09-20T00:39:15.428Z,101173.73
2022-09-20T00:41:43.385Z,101172.47
2022-09-20T00:44:58.179Z,101173.75
2022-09-20T00:48:20.588Z,101174.10
2022-09-20T00:50:54.831Z,101172.11
2022-09-20T00:53:44.177Z,101176.45
2022-09-20T00:56:24.530Z,101178.80
2022-09-20T00:59:07.382Z,101178.61
2022-09-20T01:01:35.583Z,101177.72
2022-09-20T01:04:04.327Z,101174.71
2022-09-20T01:06:33.835Z,101177.41
2022-09-20T01:09:05.495Z,101177.20
2022-09-20T01:11:35.123Z,101179.65
2022-09-20T01:14:02.033Z,101178.62
2022-09-20T01:16:32.035Z,101181.16
2022-09-20T01:19:07.190Z,101181.46
2022-09-20T01:21:34.665Z,101183.48
2022-09-20T01:24:21.049Z,101184.73
2022-09-20T01:27:11.862Z,101180.98
2022-09-20T01:30:07.136Z,101180.99
2022-09-20T01:33:06.582Z,101178.54
2022-09-20T01:35:35.881Z,101184.83
2022-09-20T01:38:34.558Z,101184.70
2022-09-20T01:41:10.642Z,101184.09
2022-09-20T01:43:58.871Z,101187.09
2022-09-20T01:46:36.659Z,101183.08
2022-09-20T01:49:20.027Z,101183.13
2022-09-20T01:52:28.609Z,101185.34
2022-09-20T01:55:46.943Z,101194.43
2022-09-20T01:59:23.774Z,101190.38
2022-09-20T02:01:53.862Z,101190.34
2022-09-20T02:04:58.198Z,101190.83
2022-09-20T02:08:04.284Z,101190.80
2022-09-20T02:11:05.239Z,101195.41
2022-09-20T02:13:47.389Z,101193.86
2022-09-20T02:16:50.661Z,101193.86
2022-09-20T02:19:50.420Z,101193.61
2022-09-20T02:22:44.819Z,101199.89
2022-09-20T02:25:56.051Z,101198.46
2022-09-20T02:28:53.945Z,101200.59
2022-09-20T02:32:07.255Z,101202.09
2022-09-20T02:35:25.730Z,101202.80
2022-09-20T02:38:09.073Z,101203.58
2022-09-20T02:40:47.270Z,101201.20
2022-09-20T02:43:39.984Z,101208.23
2022-09-20T02:46:34.072Z,101207.90
2022-09-20T02:49:28.797Z,101213.61
2022-09-20T02:52:13.395Z,101212.14
2022-09-20T02:54:57.623Z,101214.27
2022-09-20T02:57:41.402Z,101211.73
2022-09-20T03:00:19.780Z,101212.80
2022-09-20T03:03:34.193Z,101213.23
2022-09-20T03:06:29.004Z,101212.39
2022-09-20T03:09:33.624Z,101214.30
2022-09-20T03:12:44.719Z,101216.23
2022-09-20T03:15:40.829Z,101220.08
2022-09-20T03:18:15.588Z,101221.28
2022-09-20T03:21:22.871Z,101221.02
2022-09-20T03:24:11.829Z,101226.84
2022-09-20T03:27:14.945Z,101226.27
2022-09-20T03:30:16.199Z,101230.66
2022-09-20T03:32:55.211Z,101228.52
2022-09-20T03:36:09.659Z,101232.63
2022-09-20T03:38:57.125Z,101234.05
2022-09-20T03:42:12.478Z,101232.08
2022-09-20T03:45:13.034Z,101232.68
2022-09-20T03:48:20.948Z,101238.71
2022-09-20T03:51:44.538Z,101234.08
2022-09-20T03:54:43.292Z,101242.80
2022-09-20T03:57:34.625Z,101240.46
2022-09-20T04:00:23.933Z,101242.25
2022-09-20T04:03:27.975Z,101241.05
2022-09-20T04:06:19.249Z,101240.90
2022-09-20T04:09:14.199Z,101239.95
2022-09-20T04:11:46.272Z,101241.08
2022-09-20T04:14:45.757Z,101249.95
2022-09-20T04:17:34.080Z,101251.17
2022-09-20T04:20:21.373Z,101254.55
2022-09-20T04:22:56.158Z,101254.70
2022-09-20T04:25:35.149Z,101249.95
2022-09-20T04:28:30.934Z,101249.89
2022-09-20T04:31:25.034Z,101248.57
2022-09-20T04:33:55.977Z,101248.56
2022-09-20T04:36:54.669Z,101249.67
2022-09-20T04:39:34.206Z,101250.06
2022-09-20T04:42:34.729Z,101253.40
2022-09-20T04:45:44.510Z,101253.08
2022-09-20T04:48:57.981Z,101254.27
2022-09-20T04:51:46.142Z,101257.26
2022-09-20T04:54:26.137Z,101253.74
2022-09-20T04:57:26.166Z,101256.50
2022-09-20T05:00:12.170Z,101258.23
2022-09-20T05:03:32.851Z,101262.27
2022-09-20T05:06:31.834Z,101267.30
2022-09-20T05:09:52.700Z,101271.92
2022-09-20T05:12:57.813Z,101275.18
2022-09-20T05:15:55.075Z,101281.55
2022-09-20T05:19:05.197Z,101281.30
2022-09-20T05:21:53.930Z,101284.23
2022-09-20T05:25:23.570Z,101289.98
2022-09-20T05:28:07.069Z,101289.75
2022-09-20T05:30:50.682Z,101293.80
2022-09-20T05:33:37.551Z,101301.10
2022-09-20T05:36:43.171Z,101306.79
2022-09-20T05:40:03.249Z,101309.48
2022-09-20T05:42:50.059Z,101311.22
2022-09-20T05:45:25.284Z,101314.81
2022-09-20T05:48:10.239Z,101319.64
2022-09-20T05:50:45.522Z,101322.33
2022-09-20T05:53:45.207Z,101325.64
2022-09-20T05:56:20.525Z,101325.61
2022-09-20T05:59:13.704Z,101328.75
2022-09-20T06:02:09.242Z,101333.11
2022-09-20T06:05:02.815Z,101334.45
2022-09-20T06:08:08.665Z,101337.65
2022-09-20T06:11:15.441Z,101344.30
2022-09-20T06:14:01.166Z,101341.66
2022-09-20T06:16:59.269Z,101344.88
2022-09-20T06:19:58.459Z,101342.16
2022-09-20T06:22:34.048Z,101338.34
2022-09-20T06:25:09.641Z,101342.12
2022-09-20T06:27:45.013Z,101341.04
2022-09-20T06:30:36.849Z,101345.14
2022-09-20T06:33:06.474Z,101352.87
2022-09-20T06:35:45.192Z,101351.55
2022-09-20T06:38:48.954Z,101352.05
2022-09-20T06:41:28.538Z,101354.23
2022-09-20T06:44:01.090Z,101355.61
2022-09-20T06:46:34.157Z,101355.06
2022-09-20T06:49:01.079Z,101357.89
2022-09-20T06:51:34.341Z,101358.73
2022-09-20T06:54:01.661Z,101359.69
2022-09-20T06:56:37.001Z,101360.77
2022-09-20T06:59:08.090Z,101363.34
2022-09-20T07:01:38.667Z,101365.27
2022-09-20T07:04:06.220Z,101366.59
2022-09-20T07:06:33.708Z,101365.27
2022-09-20T07:09:00.385Z,101371.65
2022-09-20T07:11:27.915Z,101368.17
2022-09-20T07:13:58.298Z,101375.08
2022-09-20T07:16:26.506Z,101369.33
2022-09-20T07:18:53.744Z,101375.77
2022-09-20T07:21:21.935Z,101375.99
2022-09-20T07:23:49.229Z,101378.05
2022-09-20T07:26:27.917Z,101378.89
2022-09-20T07:28:56.071Z,101380.35
2022-09-20T07:31:25.742Z,101382.16
2022-09-20T07:33:52.679Z,101383.20
2022-09-20T07:36:20.393Z,101382.91
2022-09-20T07:38:53.157Z,101382.44
2022-09-20T07:41:23.063Z,101384.45
2022-09-20T07:43:51.061Z,101386.11
2022-09-20T07:46:18.093Z,101391.95
2022-09-20T07:48:44.720Z,101392.73
2022-09-20T07:51:13.764Z,101395.32
2022-09-20T07:53:41.450Z,101398.60
2022-09-20T07:56:15.301Z,101403.14
2022-09-20T07:58:47.390Z,101405.06
2022-09-20T08:01:18.150Z,101408.17
2022-09-20T08:03:46.132Z,101406.67
2022-09-20T08:06:15.055Z,101408.38
2022-09-20T08:08:42.633Z,101409.41
2022-09-20T08:11:27.797Z,101411.30
2022-09-20T08:14:06.176Z,101410.89
2022-09-20T08:16:40.172Z,101413.70
2022-09-20T08:19:07.187Z,101414.70
2022-09-20T08:21:37.390Z,101419.80
2022-09-20T08:24:04.180Z,101420.75
2022-09-20T08:26:31.677Z,101418.27
2022-09-20T08:29:00.287Z,101416.45
2022-09-20T08:31:36.780Z,101417.61
2022-09-20T08:34:07.074Z,101421.38
2022-09-20T08:36:38.426Z,101427.13
2022-09-20T08:42:14.823Z,101425.73
2022-09-20T08:44:58.642Z,101433.90
2022-09-20T08:47:36.964Z,101434.27
2022-09-20T08:50:10.136Z,101429.23
2022-09-20T08:52:40.758Z,101431.70
2022-09-20T08:55:21.938Z,101433.73
2022-09-20T08:57:58.172Z,101437.73
2022-09-20T09:00:36.903Z,101440.60
2022-09-20T09:03:11.067Z,101437.32
2022-09-20T09:06:01.155Z,101444.15
2022-09-20T09:08:38.085Z,101445.33
2022-09-20T09:11:12.666Z,101438.73
2022-09-20T09:14:02.464Z,101437.95
2022-09-20T09:16:35.608Z,101435.23
2022-09-20T09:19:34.255Z,101436.84
2022-09-20T09:22:05.666Z,101435.66
2022-09-20T09:24:32.380Z,101437.36
2022-09-20T09:27:17.322Z,101439.79
2022-09-20T09:29:52.980Z,101439.48
2022-09-20T09:32:32.867Z,101438.13
2022-09-20T09:35:31.798Z,101443.29
2022-09-20T09:38:02.531Z,101444.02
2022-09-20T09:40:32.464Z,101443.52
2022-09-20T09:43:04.163Z,101444.27
2022-09-20T09:45:39.339Z,101447.47
2022-09-20T09:48:34.360Z,101447.02
2022-09-20T09:51:18.845Z,101449.79
2022-09-20T09:53:49.153Z,101448.45
2022-09-20T09:56:47.168Z,101449.02
2022-09-20T09:59:49.025Z,101452.96
2022-09-20T10:02:54.209Z,101453.13
2022-09-20T10:05:46.318Z,101453.92
2022-09-20T10:08:31.441Z,101448.53
2022-09-20T10:11:18.955Z,101443.81
2022-09-20T10:13:54.213Z,101447.06
2022-09-20T10:17:10.770Z,101443.58
2022-09-20T10:19:49.560Z,101445.27
2022-09-20T10:23:14.712Z,101440.23
2022-09-20T10:26:14.498Z,101446.33
2022-09-20T10:28:58.393Z,101444.52
2022-09-20T10:32:00.372Z,101446.20
2022-09-20T10:35:24.155Z,101442.54
2022-09-20T10:38:14.660Z,101454.25
2022-09-20T10:41:26.141Z,101446.36
2022-09-20T10:44:20.780Z,101447.54
2022-09-20T10:47:02.039Z,101457.81
2022-09-20T10:49:41.342Z,101458.95
2022-09-20T10:52:50.233Z,101460.00
2022-09-20T10:55:47.447Z,101466.36
2022-09-20T10:58:45.353Z,101468.89
2022-09-20T11:01:28.542Z,101464.10
2022-09-20T11:04:48.268Z,101465.48
2022-09-20T11:07:26.700Z,101473.08
2022-09-20T11:10:05.492Z,101478.23
2022-09-20T11:12:49.936Z,101467.48
2022-09-20T11:15:26.190Z,101470.61
2022-09-20T11:18:01.588Z,101470.32
2022-09-20T11:20:37.456Z,101470.27
2022-09-20T11:23:25.526Z,101474.81
2022-09-20T11:26:02.030Z,101474.39
2022-09-20T11:28:42.773Z,101481.30
2022-09-20T11:31:39.802Z,101485.23
2022-09-20T11:34:23.187Z,101486.47
2022-09-20T11:37:01.323Z,101492.20
2022-09-20T11:39:46.459Z,101499.40
2022-09-20T11:42:39.829Z,101506.09
2022-09-20T11:45:11.346Z,101512.80
2022-09-20T11:48:04.184Z,101516.50
2022-09-20T11:51:03.253Z,101536.09
2022-09-20T11:53:43.785Z,101545.77
2022-09-20T11:56:26.905Z,101546.08
2022-09-20T11:58:59.159Z,101545.65
2022-09-20T12:01:42.725Z,101528.67
2022-09-20T12:04:32.359Z,101522.73
2022-09-20T12:07:18.406Z,101525.27
2022-09-20T12:10:06.368Z,101525.90
2022-09-20T12:12:48.303Z,101527.44
2022-09-20T12:15:41.844Z,101523.45
2022-09-20T12:18:32.953Z,101525.80
2022-09-20T12:21:16.293Z,101525.34
2022-09-20T12:23:46.597Z,101526.60
2022-09-20T12:26:22.602Z,101521.97
2022-09-20T12:28:53.952Z,101518.15
2022-09-20T12:31:29.113Z,101514.55
2022-09-20T12:33:59.132Z,101510.09
2022-09-20T12:36:29.091Z,101509.98
2022-09-20T12:39:23.308Z,101509.52
2022-09-20T12:42:18.608Z,101507.16
2022-09-20T12:44:51.379Z,101508.30
2022-09-20T12:47:24.215Z,101505.61
2022-09-20T12:50:14.219Z,101506.40
2022-09-20T12:53:02.488Z,101503.15
2022-09-20T12:56:07.846Z,101504.89
2022-09-20T12:58:53.442Z,101506.32
2022-09-20T13:01:23.208Z,101511.54
2022-09-20T13:03:50.648Z,101510.69
2022-09-20T13:06:18.651Z,101516.84
2022-09-20T13:09:08.725Z,101514.02
2022-09-20T13:11:49.483Z,101517.70
2022-09-20T13:14:26.140Z,101522.34
2022-09-20T13:17:19.199Z,101524.98
2022-09-20T13:19:49.930Z,101524.91
2022-09-20T13:22:37.860Z,101535.10
2022-09-20T13:25:07.334Z,101541.27
2022-09-20T13:27:46.908Z,101553.62
2022-09-20T13:30:28.764Z,101561.05
2022-09-20T13:32:55.491Z,101565.15
2022-09-20T13:35:27.954Z,101570.33
2022-09-20T13:38:09.814Z,101569.67
2022-09-20T13:40:44.741Z,101575.13
2022-09-20T13:43:45.850Z,101572.43
2022-09-20T13:46:13.764Z,101581.17
2022-09-20T13:48:41.008Z,101581.34
2022-09-20T13:51:26.411Z,101580.55
2022-09-20T13:53:54.547Z,101575.77
2022-09-20T13:56:29.962Z,101574.41
2022-09-20T13:59:00.911Z,101575.58
2022-09-20T14:01:37.069Z,101573.97
2022-09-20T14:04:13.309Z,101576.30
2022-09-20T14:06:42.363Z,101578.58
2022-09-20T14:09:23.568Z,101583.11
2022-09-20T14:11:50.903Z,101584.84
2022-09-20T14:14:22.407Z,101583.90
2022-09-20T14:16:53.334Z,101582.80
2022-09-20T14:19:27.391Z,101582.54
2022-09-20T14:21:55.487Z,101582.21
2022-09-20T14:24:33.481Z,101586.87
2022-09-20T14:27:20.983Z,101583.38
2022-09-20T14:29:55.076Z,101584.13
2022-09-20T14:32:24.960Z,101578.63
2022-09-20T14:35:06.066Z,101579.27
2022-09-20T14:37:48.718Z,101579.20
2022-09-20T14:40:30.516Z,101581.63
2022-09-20T14:43:04.366Z,101580.53
2022-09-20T14:45:37.855Z,101580.51
2022-09-20T14:48:11.389Z,101579.59
2022-09-20T14:50:43.220Z,101582.02
2022-09-20T14:53:10.737Z,101581.34
2022-09-20T14:55:56.128Z,101583.41
2022-09-20T14:58:24.849Z,101584.13
2022-09-20T15:01:01.543Z,101580.57
2022-09-20T15:03:34.259Z,101579.01
2022-09-20T15:06:01.003Z,101576.58
2022-09-20T15:08:28.078Z,101585.27
2022-09-20T15:10:54.826Z,101584.52
2022-09-20T15:13:21.805Z,101590.33
2022-09-20T15:15:53.765Z,101591.72
2022-09-20T15:18:39.617Z,101588.10
2022-09-20T15:24:10.564Z,101591.73
2022-09-20T15:26:37.207Z,101595.65
2022-09-20T15:29:17.740Z,101604.09
2022-09-20T15:31:48.704Z,101611.84
2022-09-20T15:34:16.286Z,101612.16
2022-09-20T15:36:43.789Z,101616.15
2022-09-20T15:39:11.050Z,101613.00
2022-09-20T15:41:38.702Z,101614.66
2022-09-20T15:44:07.218Z,101618.67
2022-09-20T15:46:35.177Z,101624.52
2022-09-20T15:49:06.555Z,101625.66
2022-09-20T15:51:34.045Z,101624.97
2022-09-20T15:54:06.253Z,101627.39
2022-09-20T15:56:37.302Z,101630.01
2022-09-20T15:59:10.029Z,101632.61
2022-09-20T16:01:40.769Z,101635.14
2022-09-20T16:04:12.671Z,101636.95
2022-09-20T16:06:42.798Z,101630.33
2022-09-20T16:09:10.097Z,101635.61
2022-09-20T16:11:37.060Z,101638.91
2022-09-20T16:14:04.388Z,101631.70
2022-09-20T16:16:39.737Z,101628.74
2022-09-20T16:19:20.556Z,101625.27
2022-09-20T16:21:57.730Z,101634.27
2022-09-20T16:24:31.801Z,101625.86
2022-09-20T16:27:01.487Z,101625.98
2022-09-20T16:29:30.169Z,101625.27
2022-09-20T16:31:59.093Z,101621.95
2022-09-20T16:34:36.916Z,101625.77
2022-09-20T16:37:17.102Z,101628.61
2022-09-20T16:39:44.418Z,101634.59
2022-09-20T16:42:18.632Z,101633.65
2022-09-20T16:44:51.481Z,101637.63
2022-09-20T16:47:22.392Z,101644.88
2022-09-20T16:49:50.534Z,101647.38
2022-09-20T16:52:17.616Z,101653.83
2022-09-20T16:54:44.692Z,101651.86
2022-09-20T16:57:14.564Z,101655.68
2022-09-20T16:59:41.255Z,101659.13
2022-09-20T17:02:12.585Z,101664.42
2022-09-20T17:04:39.442Z,101664.23
2022-09-20T17:07:06.666Z,101668.58
2022-09-20T17:09:33.314Z,101666.58
2022-09-20T17:12:01.237Z,101664.34
2022-09-20T17:14:27.879Z,101669.17
2022-09-20T17:16:56.488Z,101672.49
2022-09-20T17:19:23.235Z,101674.13
2022-09-20T17:21:51.006Z,101672.92
2022-09-20T17:24:23.160Z,101673.75
2022-09-20T17:26:51.081Z,101678.15
2022-09-20T17:29:20.295Z,101681.45
2022-09-20T17:31:55.127Z,101680.80
2022-09-20T17:34:22.351Z,101681.05
2022-09-20T17:36:50.503Z,101686.00
2022-09-20T17:39:18.615Z,101687.63
2022-09-20T17:41:48.445Z,101691.86
2022-09-20T17:44:16.988Z,101693.73
2022-09-20T17:46:53.885Z,101697.88
2022-09-20T17:49:23.455Z,101699.39
2022-09-20T17:51:55.885Z,101704.23
2022-09-20T17:54:24.514Z,101704.34
2022-09-20T17:56:56.212Z,101711.50
2022-09-20T17:59:23.457Z,101713.06
2022-09-20T18:01:51.651Z,101715.38
2022-09-20T18:04:21.415Z,101715.20
2022-09-20T18:06:52.145Z,101716.99
2022-09-20T18:09:23.247Z,101719.33
2022-09-20T18:11:53.513Z,101724.95
2022-09-20T18:14:31.157Z,101729.95
2022-09-20T18:17:01.504Z,101732.75
2022-09-20T18:19:34.667Z,101732.23
2022-09-20T18:22:03.165Z,101736.39
2022-09-20T18:24:31.103Z,101735.39
2022-09-20T18:26:57.861Z,101737.36
2022-09-20T18:29:25.061Z,101738.66
2022-09-20T18:31:54.596Z,101739.27
2022-09-20T18:34:25.439Z,101744.45
2022-09-20T18:36:56.123Z,101745.52
2022-09-20T18:39:29.623Z,101747.70
2022-09-20T18:41:57.303Z,101751.48
2022-09-20T18:44:24.583Z,101754.64
2022-09-20T18:46:55.005Z,101755.85
2022-09-20T18:49:22.353Z,101756.90
2022-09-20T18:51:50.000Z,101761.35
2022-09-20T18:54:17.945Z,101765.13
2022-09-20T18:56:48.031Z,101767.16
2022-09-20T18:59:20.382Z,101768.55
2022-09-20T19:02:09.410Z,101772.19
2022-09-20T19:05:12.052Z,101773.52
2022-09-20T19:08:17.307Z,101771.20
2022-09-20T19:10:54.279Z,101774.48
2022-09-20T19:13:57.355Z,101774.13
2022-09-20T19:16:41.067Z,101767.38
2022-09-20T19:19:26.717Z,101776.37
2022-09-20T19:22:45.747Z,101774.88
2022-09-20T19:25:58.770Z,101783.17
2022-09-20T19:28:26.276Z,101787.16
2022-09-20T19:30:54.569Z,101793.95
2022-09-20T19:33:21.713Z,101797.55
2022-09-20T19:35:51.552Z,101798.09
2022-09-20T19:38:40.251Z,101799.51
2022-09-20T19:41:29.431Z,101799.65
2022-09-20T19:44:15.126Z,101808.02
2022-09-20T19:47:01.807Z,101810.92
2022-09-20T19:50:11.716Z,101809.63
2022-09-20T19:52:39.460Z,101818.31
2022-09-20T19:55:07.226Z,101819.67
2022-09-20T19:57:46.771Z,101821.96
2022-09-20T20:00:17.641Z,101816.28
2022-09-20T20:02:45.981Z,101819.19
2022-09-20T20:05:17.703Z,101818.40
2022-09-20T20:08:00.125Z,101816.38
2022-09-20T20:11:00.808Z,101825.77
2022-09-20T20:14:05.124Z,101828.35
2022-09-20T20:17:02.649Z,101830.42
2022-09-20T20:20:36.092Z,101831.58
2022-09-20T20:23:32.626Z,101835.95
2022-09-20T20:26:08.993Z,101840.52
2022-09-20T20:28:36.925Z,101844.95
2022-09-20T20:31:05.646Z,101841.63
2022-09-20T20:33:33.980Z,101843.73
2022-09-20T20:36:02.215Z,101847.00
2022-09-20T20:38:32.663Z,101847.20
2022-09-20T20:41:04.507Z,101849.70
2022-09-20T20:43:37.609Z,101856.41
2022-09-20T20:46:07.310Z,101857.25
2022-09-20T20:48:34.737Z,101857.25
2022-09-20T20:51:11.587Z,101861.28
2022-09-20T20:53:43.027Z,101861.64
2022-09-20T20:56:16.769Z,101862.58
2022-09-20T20:58:45.804Z,101864.06
2022-09-20T21:01:19.571Z,101865.77
2022-09-20T21:03:50.489Z,101873.30
2022-09-20T21:06:17.908Z,101868.27
2022-09-20T21:08:49.514Z,101871.09
2022-09-20T21:11:23.363Z,101870.38
2022-09-20T21:13:51.912Z,101873.69
2022-09-20T21:16:22.456Z,101878.83
2022-09-20T21:18:51.059Z,101877.31
2022-09-20T21:21:30.273Z,101876.92
2022-09-20T21:24:01.256Z,101876.19
2022-09-20T21:26:33.400Z,101880.19
2022-09-20T21:29:03.718Z,101878.80
2022-09-20T21:31:40.590Z,101878.02
2022-09-20T21:34:09.327Z,101881.50
2022-09-20T21:36:38.183Z,101879.59
2022-09-20T21:39:06.162Z,101889.21
2022-09-20T21:41:36.747Z,101893.46
2022-09-20T21:44:06.479Z,101889.70
2022-09-20T21:46:37.012Z,101897.26
2022-09-20T21:49:08.476Z,101896.44
2022-09-20T21:51:36.858Z,101900.50
2022-09-20T21:54:05.797Z,101901.33
2022-09-20T21:56:38.493Z,101902.27
2022-09-20T21:59:07.842Z,101908.42
2022-09-20T22:01:39.223Z,101913.59
2022-09-20T22:04:10.220Z,101915.33
2022-09-20T22:06:45.427Z,101914.84
2022-09-20T22:09:16.016Z,101913.57
2022-09-20T22:11:46.542Z,101911.11
2022-09-20T22:14:16.445Z,101906.52
2022-09-20T22:16:45.996Z,101910.45
2022-09-20T22:19:17.017Z,101910.20
2022-09-20T22:21:46.817Z,101911.05
2022-09-20T22:24:16.404Z,101912.61
2022-09-20T22:26:50.046Z,101910.73
2022-09-20T22:29:18.614Z,101913.46
2022-09-20T22:31:47.929Z,101913.50
2022-09-20T22:34:18.644Z,101914.09
2022-09-20T22:36:46.323Z,101921.33
2022-09-20T22:39:14.612Z,101917.31
2022-09-20T22:41:42.787Z,101916.02
2022-09-20T22:44:10.836Z,101919.39
2022-09-20T22:46:38.454Z,101918.68
2022-09-20T22:49:09.638Z,101915.36
2022-09-20T22:51:37.805Z,101918.36
2022-09-20T22:54:08.496Z,101919.07
2022-09-20T22:56:36.778Z,101916.02
2022-09-20T22:59:10.472Z,101920.77
2022-09-20T23:01:44.724Z,101918.20
2022-09-20T23:04:20.363Z,101919.39
2022-09-20T23:06:55.067Z,101919.95
2022-09-20T23:09:25.565Z,101916.61
2022-09-20T23:11:52.824Z,101918.93
2022-09-20T23:14:21.846Z,101918.21
2022-09-20T23:16:50.022Z,101917.55
2022-09-20T23:19:17.934Z,101915.30
2022-09-20T23:21:45.244Z,101917.73
2022-09-20T23:24:14.548Z,101917.51
2022-09-20T23:26:43.570Z,101920.91
2022-09-20T23:29:16.563Z,101927.27
2022-09-20T23:31:47.116Z,101926.55
2022-09-20T23:34:16.161Z,101928.13
2022-09-20T23:36:44.687Z,101936.70
2022-09-20T23:39:12.835Z,101942.02
2022-09-20T23:41:41.212Z,101945.98
2022-09-20T23:44:10.152Z,101948.08
2022-09-20T23:46:38.623Z,101949.36
2022-09-20T23:49:06.774Z,101948.87
2022-09-20T23:51:35.337Z,101948.77
2022-09-20T23:54:02.657Z,101943.77
2022-09-20T23:56:30.184Z,101946.96
2022-09-20T23:58:57.213Z,101942.42
